createdAt,value
2023-01-07T00:01:43.860Z,3.10
2023-01-07T00:06:47.201Z,3.20
2023-01-07T00:11:48.521Z,3.10
2023-01-07T00:16:49.910Z,3.25
2023-01-07T00:21:51.174Z,3.93
2023-01-07T00:26:52.603Z,7.03
2023-01-07T00:31:53.925Z,7.47
2023-01-07T00:37:15.170Z,6.22
2023-01-07T00:42:35.354Z,6.53
2023-01-07T00:47:36.927Z,5.67
2023-01-07T00:52:38.228Z,3.88
2023-01-07T00:57:39.492Z,3.60
2023-01-07T01:02:40.907Z,4.15
2023-01-07T01:07:42.535Z,4.80
2023-01-07T01:12:43.892Z,4.30
2023-01-07T01:17:45.497Z,4.10
2023-01-07T01:22:46.765Z,3.17
2023-01-07T01:27:48.054Z,3.03
2023-01-07T01:32:49.353Z,3.03
2023-01-07T01:37:50.623Z,2.53
2023-01-07T01:42:51.891Z,2.50
2023-01-07T01:48:03.069Z,2.70
2023-01-07T01:53:07.657Z,2.60
2023-01-07T01:58:17.146Z,2.60
2023-01-07T02:03:19.731Z,2.40
2023-01-07T02:08:22.007Z,2.40
2023-01-07T02:13:24.709Z,2.90
2023-01-07T02:18:37.210Z,3.25
2023-01-07T02:23:44.749Z,2.88
2023-01-07T02:28:52.153Z,2.23
2023-01-07T02:33:53.383Z,2.53
2023-01-07T02:39:06.701Z,5.50
2023-01-07T02:44:16.580Z,2.88
2023-01-07T02:49:18.192Z,3.67
2023-01-07T02:54:23.479Z,2.23
2023-01-07T02:59:36.304Z,1.52
2023-01-07T03:04:45.585Z,1.77
2023-01-07T03:09:55.414Z,1.45
2023-01-07T03:15:01.725Z,1.45
2023-01-07T03:20:03.913Z,1.73
2023-01-07T03:25:05.984Z,1.58
2023-01-07T03:30:09.501Z,1.17
2023-01-07T03:35:10.983Z,1.00
2023-01-07T03:40:12.585Z,1.05
2023-01-07T03:45:18.831Z,0.90
2023-01-07T03:50:20.496Z,1.00
2023-01-07T03:55:21.812Z,0.90
2023-01-07T04:00:23.101Z,1.40
2023-01-07T04:05:24.404Z,1.42
2023-01-07T04:10:25.695Z,1.33
2023-01-07T04:15:26.945Z,1.13
2023-01-07T04:20:28.188Z,1.23
2023-01-07T04:25:30.774Z,1.33
2023-01-07T04:30:33.297Z,0.93
2023-01-07T04:35:34.591Z,1.17
2023-01-07T04:40:35.876Z,1.10
2023-01-07T04:45:37.175Z,1.00
2023-01-07T04:50:38.454Z,1.20
2023-01-07T04:55:39.951Z,1.17
2023-01-07T05:00:41.408Z,1.00
2023-01-07T05:05:42.648Z,1.20
2023-01-07T05:10:43.869Z,1.20
2023-01-07T05:15:45.253Z,1.00
2023-01-07T05:20:48.118Z,1.00
2023-01-07T05:25:49.371Z,0.90
2023-01-07T05:30:50.697Z,0.80
2023-01-07T05:35:51.957Z,0.80
2023-01-07T05:40:53.285Z,1.00
2023-01-07T05:45:55.976Z,0.80
2023-01-07T05:50:57.227Z,1.00
2023-01-07T05:55:59.366Z,1.65
2023-01-07T06:01:00.700Z,1.43
2023-01-07T06:06:07.247Z,1.38
2023-01-07T06:11:09.159Z,1.20
2023-01-07T06:16:12.273Z,1.00
2023-01-07T06:21:16.095Z,1.20
2023-01-07T06:26:17.520Z,1.07
2023-01-07T06:31:18.861Z,0.90
2023-01-07T06:36:20.195Z,0.95
2023-01-07T06:41:21.504Z,1.00
2023-01-07T06:46:22.832Z,1.02
2023-01-07T06:51:24.174Z,1.10
2023-01-07T06:56:25.456Z,1.30
2023-01-07T07:01:26.822Z,1.33
2023-01-07T07:06:28.143Z,1.10
2023-01-07T07:11:29.380Z,1.27
2023-01-07T07:16:32.583Z,1.27
2023-01-07T07:21:33.976Z,1.20
2023-01-07T07:26:35.219Z,1.08
2023-01-07T07:31:36.863Z,0.80
2023-01-07T07:36:38.155Z,1.02
2023-01-07T07:41:39.387Z,1.00
2023-01-07T07:46:42.133Z,1.25
2023-01-07T07:51:43.517Z,1.10
2023-01-07T07:56:44.817Z,1.17
2023-01-07T08:01:46.231Z,1.10
2023-01-07T08:06:47.572Z,1.10
2023-01-07T08:11:48.857Z,1.08
2023-01-07T08:16:50.116Z,1.05
2023-01-07T08:21:51.655Z,1.20
2023-01-07T08:26:55.529Z,1.52
2023-01-07T08:31:57.228Z,1.50
2023-01-07T08:36:58.531Z,1.10
2023-01-07T08:41:59.816Z,1.10
2023-01-07T08:47:01.249Z,1.00
2023-01-07T08:52:02.625Z,1.40
2023-01-07T08:57:03.853Z,1.20
2023-01-07T09:02:05.218Z,0.80
2023-01-07T09:07:06.487Z,0.85
2023-01-07T09:12:10.665Z,0.90
2023-01-07T09:17:12.168Z,1.10
2023-01-07T09:22:13.657Z,1.03
2023-01-07T09:27:16.575Z,0.90
2023-01-07T09:32:17.933Z,0.70
2023-01-07T09:37:19.270Z,0.80
2023-01-07T09:42:39.065Z,1.17
2023-01-07T09:47:43.129Z,1.00
2023-01-07T09:52:47.155Z,0.70
2023-01-07T09:57:48.728Z,0.80
2023-01-07T10:02:50.021Z,1.30
2023-01-07T10:08:29.148Z,0.93
2023-01-07T10:13:36.869Z,1.10
2023-01-07T10:18:57.932Z,0.85
2023-01-07T10:24:03.227Z,0.88
2023-01-07T10:29:23.367Z,1.10
2023-01-07T10:34:29.006Z,1.10
2023-01-07T10:39:48.767Z,0.90
2023-01-07T10:44:56.131Z,0.70
2023-01-07T10:50:03.065Z,1.00
2023-01-07T10:55:30.644Z,0.60
2023-01-07T11:00:32.385Z,0.65
2023-01-07T11:05:37.868Z,0.70
2023-01-07T11:10:39.344Z,0.80
2023-01-07T11:15:45.432Z,0.70
2023-01-07T11:20:48.441Z,1.10
2023-01-07T11:25:49.726Z,1.42
2023-01-07T11:30:58.414Z,1.30
2023-01-07T11:36:04.497Z,1.00
2023-01-07T11:41:07.431Z,1.00
2023-01-07T11:46:20.902Z,1.30
2023-01-07T11:51:23.399Z,1.40
2023-01-07T11:56:28.925Z,1.10
2023-01-07T12:01:40.469Z,1.50
2023-01-07T12:06:44.122Z,1.00
2023-01-07T12:11:45.710Z,1.10
2023-01-07T12:16:47.518Z,1.20
2023-01-07T12:21:55.014Z,1.00
2023-01-07T12:26:59.276Z,1.48
2023-01-07T12:32:09.712Z,1.13
2023-01-07T12:37:21.594Z,1.40
2023-01-07T12:42:28.924Z,1.27
2023-01-07T12:47:36.235Z,1.30
2023-01-07T12:52:42.711Z,1.40
2023-01-07T12:57:46.004Z,1.40
2023-01-07T13:02:57.812Z,1.10
2023-01-07T13:08:04.093Z,1.20
2023-01-07T13:13:09.695Z,1.50
2023-01-07T13:18:10.937Z,1.27
2023-01-07T13:23:21.514Z,1.35
2023-01-07T13:28:25.805Z,1.47
2023-01-07T13:33:27.051Z,1.60
2023-01-07T13:38:33.493Z,1.95
2023-01-07T13:43:37.645Z,1.13
2023-01-07T13:48:40.185Z,1.65
2023-01-07T13:53:44.413Z,1.40
2023-01-07T13:58:45.737Z,1.90
2023-01-07T14:03:50.751Z,1.50
2023-01-07T14:08:59.972Z,1.90
2023-01-07T14:14:07.238Z,2.00
2023-01-07T14:19:16.867Z,1.60
2023-01-07T14:24:44.222Z,1.80
2023-01-07T14:29:46.874Z,2.00
2023-01-07T14:34:55.572Z,3.28
2023-01-07T14:39:56.892Z,6.57
2023-01-07T14:44:58.167Z,4.30
2023-01-07T14:50:02.578Z,2.08
2023-01-07T14:55:17.599Z,2.50
2023-01-07T15:00:37.499Z,5.13
2023-01-07T15:05:48.498Z,2.60
2023-01-07T15:11:09.847Z,3.55
2023-01-07T15:16:11.985Z,3.35
2023-01-07T15:21:24.079Z,3.03
2023-01-07T15:26:36.917Z,4.20
2023-01-07T15:31:58.668Z,8.50
2023-01-07T15:37:03.298Z,8.52
2023-01-07T15:42:05.600Z,10.52
2023-01-07T15:47:26.804Z,3.83
2023-01-07T15:52:28.048Z,5.07
2023-01-07T15:57:31.751Z,6.00
2023-01-07T16:02:37.406Z,8.23
2023-01-07T16:07:49.693Z,8.30
2023-01-07T16:12:52.413Z,5.00
2023-01-07T16:18:08.795Z,10.90
2023-01-07T16:23:10.289Z,11.50
2023-01-07T16:28:15.860Z,6.07
2023-01-07T16:33:19.236Z,8.77
2023-01-07T16:38:20.808Z,5.60
2023-01-07T16:43:40.453Z,6.70
2023-01-07T16:48:41.932Z,14.17
2023-01-07T16:53:43.197Z,15.93
2023-01-07T16:58:47.873Z,19.30
2023-01-07T17:03:53.174Z,12.27
2023-01-07T17:08:55.602Z,14.45
2023-01-07T17:13:56.919Z,23.97
2023-01-07T17:19:19.223Z,9.63
2023-01-07T17:24:22.015Z,9.05
2023-01-07T17:29:25.761Z,9.70
2023-01-07T17:34:27.040Z,8.95
2023-01-07T17:39:28.297Z,8.57
2023-01-07T17:44:32.041Z,10.95
2023-01-07T17:49:33.346Z,10.13
2023-01-07T17:54:35.975Z,11.53
2023-01-07T17:59:37.269Z,10.05
2023-01-07T18:04:38.620Z,9.33
2023-01-07T18:09:42.183Z,10.20
2023-01-07T18:14:43.547Z,13.32
2023-01-07T18:19:45.474Z,13.60
2023-01-07T18:24:47.661Z,9.85
2023-01-07T18:29:48.897Z,9.77
2023-01-07T18:34:50.203Z,13.48
2023-01-07T18:39:51.457Z,16.52
2023-01-07T18:44:52.723Z,13.73
2023-01-07T18:49:53.997Z,12.13
2023-01-07T18:54:55.277Z,14.03
2023-01-07T18:59:56.505Z,12.77
2023-01-07T19:04:57.777Z,12.32
2023-01-07T19:09:59.021Z,10.50
2023-01-07T19:15:00.301Z,10.27
2023-01-07T19:20:01.594Z,10.33
2023-01-07T19:25:02.897Z,9.77
2023-01-07T19:30:07.612Z,11.18
2023-01-07T19:35:08.943Z,10.50
2023-01-07T19:40:12.280Z,11.10
2023-01-07T19:45:14.841Z,11.60
2023-01-07T19:50:16.152Z,12.88
2023-01-07T19:55:17.619Z,11.05
2023-01-07T20:00:19.887Z,12.40
2023-01-07T20:05:21.521Z,13.07
2023-01-07T20:10:22.745Z,12.80
2023-01-07T20:15:24.036Z,13.68
2023-01-07T20:20:25.424Z,13.55
2023-01-07T20:25:26.732Z,13.20
2023-01-07T20:30:27.997Z,13.52
2023-01-07T20:35:29.372Z,12.83
2023-01-07T20:40:30.713Z,12.60
2023-01-07T20:45:33.295Z,13.13
2023-01-07T20:50:37.899Z,14.33
2023-01-07T20:55:39.208Z,15.13
2023-01-07T21:00:41.782Z,13.33
2023-01-07T21:05:43.521Z,12.38
2023-01-07T21:10:44.755Z,13.05
2023-01-07T21:15:46.171Z,12.50
2023-01-07T21:20:47.959Z,12.48
2023-01-07T21:25:49.498Z,11.00
2023-01-07T21:30:50.957Z,11.13
2023-01-07T21:35:52.320Z,10.68
2023-01-07T21:40:54.104Z,10.40
2023-01-07T21:45:58.672Z,10.98
2023-01-07T21:51:00.681Z,10.90
2023-01-07T21:56:09.463Z,9.38
2023-01-07T22:01:10.849Z,10.05
2023-01-07T22:06:17.296Z,10.17
2023-01-07T22:11:18.581Z,10.20
2023-01-07T22:16:20.570Z,10.50
2023-01-07T22:21:21.891Z,10.73
2023-01-07T22:26:23.242Z,11.68
2023-01-07T22:31:28.830Z,10.30
2023-01-07T22:36:30.248Z,11.68
2023-01-07T22:41:33.279Z,10.57
2023-01-07T22:46:36.841Z,9.80
2023-01-07T22:51:40.789Z,10.50
2023-01-07T22:56:42.511Z,11.57
2023-01-07T23:01:43.834Z,10.93
2023-01-07T23:06:45.077Z,10.73
2023-01-07T23:11:49.311Z,9.90
2023-01-07T23:16:51.486Z,10.05
2023-01-07T23:21:53.693Z,10.83
2023-01-07T23:26:55.247Z,10.50
2023-01-07T23:31:56.631Z,10.73
2023-01-07T23:36:57.941Z,10.77
2023-01-07T23:41:59.866Z,10.85
2023-01-07T23:47:01.160Z,10.63
2023-01-07T23:52:02.443Z,10.82
2023-01-07T23:57:03.781Z,9.30
